sensor_id;sensor_type;location;lat;lon;timestamp;P1;durP1;ratioP1;P2;durP2;ratioP2
76357;SDS011;65185;21.060;105.826;2024-01-30T00:00:12;133.48;;;70.28;;
76357;SDS011;65185;21.060;105.826;2024-01-30T00:02:39;129.23;;;68.55;;
76357;SDS011;65185;21.060;105.826;2024-01-30T00:05:05;123.35;;;66.80;;
76357;SDS011;65185;21.060;105.826;2024-01-30T00:07:32;126.95;;;68.40;;
76357;SDS011;65185;21.060;105.826;2024-01-30T00:09:59;123.25;;;65.38;;
76357;SDS011;65185;21.060;105.826;2024-01-30T00:12:25;115.45;;;61.72;;
76357;SDS011;65185;21.060;105.826;2024-01-30T00:14:52;125.78;;;66.20;;
76357;SDS011;65185;21.060;105.826;2024-01-30T00:17:18;125.13;;;66.22;;
76357;SDS011;65185;21.060;105.826;2024-01-30T00:19:46;110.80;;;61.15;;
76357;SDS011;65185;21.060;105.826;2024-01-30T00:22:12;128.07;;;68.00;;
76357;SDS011;65185;21.060;105.826;2024-01-30T00:24:39;118.07;;;61.70;;
76357;SDS011;65185;21.060;105.826;2024-01-30T00:27:05;123.03;;;63.35;;
76357;SDS011;65185;21.060;105.826;2024-01-30T00:29:31;127.70;;;65.88;;
76357;SDS011;65185;21.060;105.826;2024-01-30T00:31:59;114.35;;;62.22;;
76357;SDS011;65185;21.060;105.826;2024-01-30T00:34:26;134.85;;;68.25;;
76357;SDS011;65185;21.060;105.826;2024-01-30T00:36:52;123.75;;;65.40;;
76357;SDS011;65185;21.060;105.826;2024-01-30T00:39:19;119.57;;;62.85;;
76357;SDS011;65185;21.060;105.826;2024-01-30T00:41:45;132.65;;;68.45;;
76357;SDS011;65185;21.060;105.826;2024-01-30T00:44:12;127.35;;;65.40;;
76357;SDS011;65185;21.060;105.826;2024-01-30T00:46:38;123.40;;;62.65;;
76357;SDS011;65185;21.060;105.826;2024-01-30T00:49:05;130.93;;;68.00;;
76357;SDS011;65185;21.060;105.826;2024-01-30T00:51:36;134.20;;;66.63;;
76357;SDS011;65185;21.060;105.826;2024-01-30T00:54:02;119.35;;;61.08;;
76357;SDS011;65185;21.060;105.826;2024-01-30T00:56:28;141.50;;;68.82;;
76357;SDS011;65185;21.060;105.826;2024-01-30T00:58:56;139.25;;;68.70;;
76357;SDS011;65185;21.060;105.826;2024-01-30T01:01:22;131.98;;;65.93;;
76357;SDS011;65185;21.060;105.826;2024-01-30T01:03:49;136.35;;;64.15;;
76357;SDS011;65185;21.060;105.826;2024-01-30T01:06:15;140.32;;;67.72;;
76357;SDS011;65185;21.060;105.826;2024-01-30T01:08:42;129.48;;;64.20;;
76357;SDS011;65185;21.060;105.826;2024-01-30T01:11:09;130.02;;;64.50;;
76357;SDS011;65185;21.060;105.826;2024-01-30T01:13:35;139.90;;;67.22;;
76357;SDS011;65185;21.060;105.826;2024-01-30T01:16:02;130.32;;;65.57;;
76357;SDS011;65185;21.060;105.826;2024-01-30T01:18:29;124.90;;;61.65;;
76357;SDS011;65185;21.060;105.826;2024-01-30T01:20:55;130.27;;;62.95;;
76357;SDS011;65185;21.060;105.826;2024-01-30T01:23:22;133.50;;;63.92;;
76357;SDS011;65185;21.060;105.826;2024-01-30T01:25:49;143.10;;;65.05;;
76357;SDS011;65185;21.060;105.826;2024-01-30T01:28:15;140.70;;;66.80;;
76357;SDS011;65185;21.060;105.826;2024-01-30T01:30:42;139.15;;;66.35;;
76357;SDS011;65185;21.060;105.826;2024-01-30T01:33:08;136.30;;;63.78;;
76357;SDS011;65185;21.060;105.826;2024-01-30T01:35:35;135.77;;;65.45;;
76357;SDS011;65185;21.060;105.826;2024-01-30T01:38:02;138.57;;;63.83;;
76357;SDS011;65185;21.060;105.826;2024-01-30T01:40:29;130.32;;;61.83;;
76357;SDS011;65185;21.060;105.826;2024-01-30T01:42:56;136.35;;;63.67;;
76357;SDS011;65185;21.060;105.826;2024-01-30T01:45:25;120.07;;;58.67;;
76357;SDS011;65185;21.060;105.826;2024-01-30T01:50:19;121.25;;;57.42;;
76357;SDS011;65185;21.060;105.826;2024-01-30T01:52:47;125.78;;;60.30;;
76357;SDS011;65185;21.060;105.826;2024-01-30T01:55:16;126.38;;;60.70;;
76357;SDS011;65185;21.060;105.826;2024-01-30T01:57:46;125.28;;;61.28;;
76357;SDS011;65185;21.060;105.826;2024-01-30T02:00:14;136.77;;;65.10;;
76357;SDS011;65185;21.060;105.826;2024-01-30T02:02:41;131.82;;;64.57;;
76357;SDS011;65185;21.060;105.826;2024-01-30T02:05:11;131.50;;;64.50;;
76357;SDS011;65185;21.060;105.826;2024-01-30T02:07:38;129.80;;;65.43;;
76357;SDS011;65185;21.060;105.826;2024-01-30T02:10:05;134.45;;;65.32;;
76357;SDS011;65185;21.060;105.826;2024-01-30T02:12:35;126.97;;;62.65;;
76357;SDS011;65185;21.060;105.826;2024-01-30T02:15:02;122.70;;;61.97;;
76357;SDS011;65185;21.060;105.826;2024-01-30T02:17:30;135.93;;;66.15;;
76357;SDS011;65185;21.060;105.826;2024-01-30T02:19:57;131.68;;;64.93;;
76357;SDS011;65185;21.060;105.826;2024-01-30T02:22:24;123.65;;;62.38;;
76357;SDS011;65185;21.060;105.826;2024-01-30T02:24:50;129.82;;;64.03;;
76357;SDS011;65185;21.060;105.826;2024-01-30T02:27:17;126.15;;;62.65;;
76357;SDS011;65185;21.060;105.826;2024-01-30T02:29:44;126.47;;;60.65;;
76357;SDS011;65185;21.060;105.826;2024-01-30T02:32:11;120.70;;;59.15;;
76357;SDS011;65185;21.060;105.826;2024-01-30T02:34:38;115.20;;;58.28;;
76357;SDS011;65185;21.060;105.826;2024-01-30T02:37:05;115.80;;;58.67;;
76357;SDS011;65185;21.060;105.826;2024-01-30T02:39:32;116.35;;;58.25;;
76357;SDS011;65185;21.060;105.826;2024-01-30T02:41:59;116.43;;;57.17;;
76357;SDS011;65185;21.060;105.826;2024-01-30T02:44:26;113.53;;;55.13;;
76357;SDS011;65185;21.060;105.826;2024-01-30T02:46:53;116.38;;;56.97;;
76357;SDS011;65185;21.060;105.826;2024-01-30T02:49:20;113.60;;;56.90;;
76357;SDS011;65185;21.060;105.826;2024-01-30T02:51:47;111.28;;;56.08;;
76357;SDS011;65185;21.060;105.826;2024-01-30T02:54:14;118.15;;;58.47;;
76357;SDS011;65185;21.060;105.826;2024-01-30T02:56:41;114.20;;;56.85;;
76357;SDS011;65185;21.060;105.826;2024-01-30T02:59:08;115.82;;;58.00;;
76357;SDS011;65185;21.060;105.826;2024-01-30T03:01:44;111.25;;;55.17;;
76357;SDS011;65185;21.060;105.826;2024-01-30T03:04:12;108.03;;;54.65;;
76357;SDS011;65185;21.060;105.826;2024-01-30T03:06:39;109.60;;;55.13;;
76357;SDS011;65185;21.060;105.826;2024-01-30T03:09:10;111.85;;;57.85;;
76357;SDS011;65185;21.060;105.826;2024-01-30T03:11:37;115.32;;;55.78;;
76357;SDS011;65185;21.060;105.826;2024-01-30T03:14:04;115.25;;;56.40;;
76357;SDS011;65185;21.060;105.826;2024-01-30T03:16:31;108.63;;;55.15;;
76357;SDS011;65185;21.060;105.826;2024-01-30T03:18:58;113.82;;;56.28;;
76357;SDS011;65185;21.060;105.826;2024-01-30T03:21:26;108.57;;;55.22;;
76357;SDS011;65185;21.060;105.826;2024-01-30T03:23:53;112.38;;;56.55;;
76357;SDS011;65185;21.060;105.826;2024-01-30T03:26:20;115.13;;;56.15;;
76357;SDS011;65185;21.060;105.826;2024-01-30T03:28:46;117.88;;;56.22;;
76357;SDS011;65185;21.060;105.826;2024-01-30T03:31:14;115.47;;;56.05;;
76357;SDS011;65185;21.060;105.826;2024-01-30T03:33:41;110.57;;;56.08;;
76357;SDS011;65185;21.060;105.826;2024-01-30T03:36:09;110.18;;;54.58;;
76357;SDS011;65185;21.060;105.826;2024-01-30T03:38:37;113.65;;;55.83;;
76357;SDS011;65185;21.060;105.826;2024-01-30T03:41:07;112.80;;;56.08;;
76357;SDS011;65185;21.060;105.826;2024-01-30T03:43:35;111.72;;;55.17;;
76357;SDS011;65185;21.060;105.826;2024-01-30T03:46:02;117.85;;;55.95;;
76357;SDS011;65185;21.060;105.826;2024-01-30T03:48:29;116.25;;;56.03;;
76357;SDS011;65185;21.060;105.826;2024-01-30T03:50:56;113.68;;;56.13;;
76357;SDS011;65185;21.060;105.826;2024-01-30T03:53:23;113.65;;;56.28;;
76357;SDS011;65185;21.060;105.826;2024-01-30T03:55:51;109.28;;;55.17;;
76357;SDS011;65185;21.060;105.826;2024-01-30T03:58:17;109.15;;;55.05;;
76357;SDS011;65185;21.060;105.826;2024-01-30T04:00:44;108.30;;;55.40;;
76357;SDS011;65185;21.060;105.826;2024-01-30T04:03:11;120.68;;;57.55;;
76357;SDS011;65185;21.060;105.826;2024-01-30T04:05:38;144.90;;;69.90;;
76357;SDS011;65185;21.060;105.826;2024-01-30T04:08:04;141.80;;;67.93;;
76357;SDS011;65185;21.060;105.826;2024-01-30T04:10:32;141.45;;;66.20;;
76357;SDS011;65185;21.060;105.826;2024-01-30T04:12:58;138.60;;;66.05;;
76357;SDS011;65185;21.060;105.826;2024-01-30T04:15:25;138.18;;;63.15;;
76357;SDS011;65185;21.060;105.826;2024-01-30T04:17:57;142.85;;;64.47;;
76357;SDS011;65185;21.060;105.826;2024-01-30T04:22:51;125.05;;;58.58;;
76357;SDS011;65185;21.060;105.826;2024-01-30T04:25:18;123.43;;;62.67;;
76357;SDS011;65185;21.060;105.826;2024-01-30T04:27:45;140.80;;;65.82;;
76357;SDS011;65185;21.060;105.826;2024-01-30T04:30:11;135.02;;;61.85;;
76357;SDS011;65185;21.060;105.826;2024-01-30T04:32:39;128.98;;;63.13;;
76357;SDS011;65185;21.060;105.826;2024-01-30T04:35:05;145.63;;;65.00;;
76357;SDS011;65185;21.060;105.826;2024-01-30T04:37:32;131.60;;;63.47;;
76357;SDS011;65185;21.060;105.826;2024-01-30T04:39:59;133.40;;;60.30;;
76357;SDS011;65185;21.060;105.826;2024-01-30T04:42:26;133.30;;;62.90;;
76357;SDS011;65185;21.060;105.826;2024-01-30T04:44:53;128.48;;;61.80;;
76357;SDS011;65185;21.060;105.826;2024-01-30T04:47:19;123.78;;;59.70;;
76357;SDS011;65185;21.060;105.826;2024-01-30T04:49:46;121.13;;;56.72;;
76357;SDS011;65185;21.060;105.826;2024-01-30T04:52:13;116.30;;;56.78;;
76357;SDS011;65185;21.060;105.826;2024-01-30T04:54:41;113.45;;;56.10;;
76357;SDS011;65185;21.060;105.826;2024-01-30T04:57:07;111.47;;;56.53;;
76357;SDS011;65185;21.060;105.826;2024-01-30T05:02:03;113.57;;;53.97;;
76357;SDS011;65185;21.060;105.826;2024-01-30T05:04:30;106.45;;;53.60;;
76357;SDS011;65185;21.060;105.826;2024-01-30T05:06:57;115.22;;;57.22;;
76357;SDS011;65185;21.060;105.826;2024-01-30T05:09:24;119.22;;;58.05;;
76357;SDS011;65185;21.060;105.826;2024-01-30T05:11:51;119.55;;;58.45;;
76357;SDS011;65185;21.060;105.826;2024-01-30T05:14:18;118.80;;;57.78;;
76357;SDS011;65185;21.060;105.826;2024-01-30T05:16:44;126.72;;;61.25;;
76357;SDS011;65185;21.060;105.826;2024-01-30T05:19:13;121.85;;;59.20;;
76357;SDS011;65185;21.060;105.826;2024-01-30T05:21:40;126.18;;;62.15;;
76357;SDS011;65185;21.060;105.826;2024-01-30T05:24:07;129.32;;;61.65;;
76357;SDS011;65185;21.060;105.826;2024-01-30T05:26:35;120.63;;;58.58;;
76357;SDS011;65185;21.060;105.826;2024-01-30T05:29:02;114.63;;;58.75;;
76357;SDS011;65185;21.060;105.826;2024-01-30T05:31:29;121.60;;;58.38;;
76357;SDS011;65185;21.060;105.826;2024-01-30T05:33:56;116.47;;;58.00;;
76357;SDS011;65185;21.060;105.826;2024-01-30T05:36:23;119.40;;;58.42;;
76357;SDS011;65185;21.060;105.826;2024-01-30T05:38:50;117.45;;;57.22;;
76357;SDS011;65185;21.060;105.826;2024-01-30T05:41:16;118.95;;;57.92;;
76357;SDS011;65185;21.060;105.826;2024-01-30T05:43:43;122.63;;;59.03;;
76357;SDS011;65185;21.060;105.826;2024-01-30T05:46:10;130.30;;;61.97;;
76357;SDS011;65185;21.060;105.826;2024-01-30T05:48:37;126.90;;;64.10;;
76357;SDS011;65185;21.060;105.826;2024-01-30T05:51:04;124.75;;;61.35;;
76357;SDS011;65185;21.060;105.826;2024-01-30T05:53:32;119.70;;;58.95;;
76357;SDS011;65185;21.060;105.826;2024-01-30T05:56:03;128.07;;;62.38;;
76357;SDS011;65185;21.060;105.826;2024-01-30T05:58:30;122.40;;;60.20;;
76357;SDS011;65185;21.060;105.826;2024-01-30T06:00:57;124.05;;;63.40;;
76357;SDS011;65185;21.060;105.826;2024-01-30T06:03:23;128.57;;;62.85;;
76357;SDS011;65185;21.060;105.826;2024-01-30T06:05:50;127.45;;;63.15;;
76357;SDS011;65185;21.060;105.826;2024-01-30T06:08:17;125.32;;;63.63;;
76357;SDS011;65185;21.060;105.826;2024-01-30T06:10:44;119.63;;;60.72;;
76357;SDS011;65185;21.060;105.826;2024-01-30T06:13:11;134.43;;;67.32;;
76357;SDS011;65185;21.060;105.826;2024-01-30T06:15:38;139.55;;;68.40;;
76357;SDS011;65185;21.060;105.826;2024-01-30T06:18:05;130.13;;;65.20;;
76357;SDS011;65185;21.060;105.826;2024-01-30T06:20:32;128.23;;;62.88;;
76357;SDS011;65185;21.060;105.826;2024-01-30T06:22:58;127.75;;;65.40;;
76357;SDS011;65185;21.060;105.826;2024-01-30T06:25:25;128.15;;;65.03;;
76357;SDS011;65185;21.060;105.826;2024-01-30T06:27:52;138.27;;;66.68;;
76357;SDS011;65185;21.060;105.826;2024-01-30T06:30:19;132.95;;;67.47;;
76357;SDS011;65185;21.060;105.826;2024-01-30T06:32:46;130.35;;;66.18;;
76357;SDS011;65185;21.060;105.826;2024-01-30T06:35:12;117.75;;;61.05;;
76357;SDS011;65185;21.060;105.826;2024-01-30T06:37:39;126.35;;;64.03;;
76357;SDS011;65185;21.060;105.826;2024-01-30T06:40:06;117.72;;;61.00;;
76357;SDS011;65185;21.060;105.826;2024-01-30T06:42:34;124.63;;;63.22;;
76357;SDS011;65185;21.060;105.826;2024-01-30T06:45:00;122.32;;;59.72;;
76357;SDS011;65185;21.060;105.826;2024-01-30T06:47:27;119.53;;;62.47;;
76357;SDS011;65185;21.060;105.826;2024-01-30T06:49:56;115.30;;;60.15;;
76357;SDS011;65185;21.060;105.826;2024-01-30T06:52:23;117.47;;;60.08;;
76357;SDS011;65185;21.060;105.826;2024-01-30T06:54:50;115.82;;;60.85;;
76357;SDS011;65185;21.060;105.826;2024-01-30T06:57:16;115.88;;;60.03;;
76357;SDS011;65185;21.060;105.826;2024-01-30T06:59:43;121.57;;;62.15;;
76357;SDS011;65185;21.060;105.826;2024-01-30T07:02:10;123.47;;;64.45;;
76357;SDS011;65185;21.060;105.826;2024-01-30T07:04:37;120.68;;;62.40;;
76357;SDS011;65185;21.060;105.826;2024-01-30T07:07:05;119.78;;;61.75;;
76357;SDS011;65185;21.060;105.826;2024-01-30T07:09:38;117.45;;;60.78;;
76357;SDS011;65185;21.060;105.826;2024-01-30T07:12:05;120.53;;;62.05;;
76357;SDS011;65185;21.060;105.826;2024-01-30T07:14:32;125.93;;;64.95;;
76357;SDS011;65185;21.060;105.826;2024-01-30T07:16:59;127.28;;;64.75;;
76357;SDS011;65185;21.060;105.826;2024-01-30T07:19:26;120.38;;;63.13;;
76357;SDS011;65185;21.060;105.826;2024-01-30T07:21:53;124.25;;;63.67;;
76357;SDS011;65185;21.060;105.826;2024-01-30T07:24:19;124.82;;;63.92;;
76357;SDS011;65185;21.060;105.826;2024-01-30T07:26:46;124.22;;;63.97;;
76357;SDS011;65185;21.060;105.826;2024-01-30T07:29:13;127.07;;;66.60;;
76357;SDS011;65185;21.060;105.826;2024-01-30T07:31:40;136.52;;;68.78;;
76357;SDS011;65185;21.060;105.826;2024-01-30T07:34:07;132.07;;;64.75;;
76357;SDS011;65185;21.060;105.826;2024-01-30T07:36:33;123.07;;;64.10;;
76357;SDS011;65185;21.060;105.826;2024-01-30T07:39:00;123.35;;;63.55;;
76357;SDS011;65185;21.060;105.826;2024-01-30T07:41:27;125.53;;;64.18;;
76357;SDS011;65185;21.060;105.826;2024-01-30T07:43:54;127.63;;;66.70;;
76357;SDS011;65185;21.060;105.826;2024-01-30T07:46:21;147.40;;;73.97;;
76357;SDS011;65185;21.060;105.826;2024-01-30T07:48:47;150.45;;;72.65;;
76357;SDS011;65185;21.060;105.826;2024-01-30T07:51:14;151.77;;;72.82;;
76357;SDS011;65185;21.060;105.826;2024-01-30T07:53:41;154.15;;;74.40;;
76357;SDS011;65185;21.060;105.826;2024-01-30T07:56:08;154.35;;;75.07;;
76357;SDS011;65185;21.060;105.826;2024-01-30T07:58:35;157.95;;;73.65;;
76357;SDS011;65185;21.060;105.826;2024-01-30T08:01:03;154.65;;;76.20;;
76357;SDS011;65185;21.060;105.826;2024-01-30T08:03:30;155.10;;;73.93;;
76357;SDS011;65185;21.060;105.826;2024-01-30T08:05:56;148.00;;;72.25;;
76357;SDS011;65185;21.060;105.826;2024-01-30T08:08:23;149.05;;;71.63;;
76357;SDS011;65185;21.060;105.826;2024-01-30T08:10:52;164.10;;;78.75;;
76357;SDS011;65185;21.060;105.826;2024-01-30T08:13:18;159.10;;;75.47;;
76357;SDS011;65185;21.060;105.826;2024-01-30T08:15:45;159.63;;;73.43;;
76357;SDS011;65185;21.060;105.826;2024-01-30T08:18:12;151.63;;;72.07;;
76357;SDS011;65185;21.060;105.826;2024-01-30T08:20:39;140.48;;;67.82;;
76357;SDS011;65185;21.060;105.826;2024-01-30T08:23:06;160.05;;;76.32;;
76357;SDS011;65185;21.060;105.826;2024-01-30T08:25:32;149.60;;;70.78;;
76357;SDS011;65185;21.060;105.826;2024-01-30T08:27:59;173.98;;;78.55;;
76357;SDS011;65185;21.060;105.826;2024-01-30T08:30:27;155.15;;;71.03;;
76357;SDS011;65185;21.060;105.826;2024-01-30T08:32:54;161.75;;;75.78;;
76357;SDS011;65185;21.060;105.826;2024-01-30T08:35:21;158.40;;;73.10;;
76357;SDS011;65185;21.060;105.826;2024-01-30T08:37:48;162.73;;;75.95;;
76357;SDS011;65185;21.060;105.826;2024-01-30T08:40:14;157.15;;;75.90;;
76357;SDS011;65185;21.060;105.826;2024-01-30T08:42:41;147.05;;;69.68;;
76357;SDS011;65185;21.060;105.826;2024-01-30T08:45:08;157.95;;;73.78;;
76357;SDS011;65185;21.060;105.826;2024-01-30T08:47:35;163.00;;;74.88;;
76357;SDS011;65185;21.060;105.826;2024-01-30T08:50:02;152.30;;;72.45;;
76357;SDS011;65185;21.060;105.826;2024-01-30T08:52:29;149.40;;;72.82;;
76357;SDS011;65185;21.060;105.826;2024-01-30T08:54:56;154.23;;;73.07;;
76357;SDS011;65185;21.060;105.826;2024-01-30T08:57:23;149.18;;;71.07;;
76357;SDS011;65185;21.060;105.826;2024-01-30T08:59:50;156.73;;;75.22;;
76357;SDS011;65185;21.060;105.826;2024-01-30T09:02:16;162.65;;;76.22;;
76357;SDS011;65185;21.060;105.826;2024-01-30T09:04:43;157.45;;;75.97;;
76357;SDS011;65185;21.060;105.826;2024-01-30T09:07:10;142.68;;;68.13;;
76357;SDS011;65185;21.060;105.826;2024-01-30T09:09:39;153.93;;;73.80;;
76357;SDS011;65185;21.060;105.826;2024-01-30T09:12:09;145.27;;;71.07;;
76357;SDS011;65185;21.060;105.826;2024-01-30T09:14:37;150.43;;;70.07;;
76357;SDS011;65185;21.060;105.826;2024-01-30T09:17:05;166.77;;;77.15;;
76357;SDS011;65185;21.060;105.826;2024-01-30T09:19:35;156.07;;;74.53;;
76357;SDS011;65185;21.060;105.826;2024-01-30T09:22:06;159.98;;;74.95;;
76357;SDS011;65185;21.060;105.826;2024-01-30T09:24:33;154.40;;;72.32;;
76357;SDS011;65185;21.060;105.826;2024-01-30T09:27:00;172.40;;;79.20;;
76357;SDS011;65185;21.060;105.826;2024-01-30T09:29:27;171.20;;;77.88;;
76357;SDS011;65185;21.060;105.826;2024-01-30T09:32:07;150.02;;;74.53;;
76357;SDS011;65185;21.060;105.826;2024-01-30T09:34:34;157.20;;;74.40;;
76357;SDS011;65185;21.060;105.826;2024-01-30T09:37:01;152.98;;;71.57;;
76357;SDS011;65185;21.060;105.826;2024-01-30T09:39:28;174.57;;;79.15;;
76357;SDS011;65185;21.060;105.826;2024-01-30T09:44:28;170.75;;;79.00;;
76357;SDS011;65185;21.060;105.826;2024-01-30T09:46:58;152.00;;;71.80;;
76357;SDS011;65185;21.060;105.826;2024-01-30T09:49:30;154.27;;;74.35;;
76357;SDS011;65185;21.060;105.826;2024-01-30T09:51:58;185.70;;;81.45;;
76357;SDS011;65185;21.060;105.826;2024-01-30T09:54:25;172.98;;;79.80;;
76357;SDS011;65185;21.060;105.826;2024-01-30T09:56:52;155.45;;;77.03;;
76357;SDS011;65185;21.060;105.826;2024-01-30T09:59:19;155.25;;;75.90;;
76357;SDS011;65185;21.060;105.826;2024-01-30T10:01:46;153.30;;;73.10;;
76357;SDS011;65185;21.060;105.826;2024-01-30T10:04:13;171.25;;;80.60;;
76357;SDS011;65185;21.060;105.826;2024-01-30T10:06:40;168.05;;;77.65;;
76357;SDS011;65185;21.060;105.826;2024-01-30T10:09:07;170.30;;;78.93;;
76357;SDS011;65185;21.060;105.826;2024-01-30T10:11:35;162.80;;;75.10;;
76357;SDS011;65185;21.060;105.826;2024-01-30T10:14:02;171.82;;;78.38;;
76357;SDS011;65185;21.060;105.826;2024-01-30T10:16:29;175.82;;;79.65;;
76357;SDS011;65185;21.060;105.826;2024-01-30T10:18:56;169.48;;;78.43;;
76357;SDS011;65185;21.060;105.826;2024-01-30T10:21:23;176.05;;;80.20;;
76357;SDS011;65185;21.060;105.826;2024-01-30T10:23:50;159.80;;;74.32;;
76357;SDS011;65185;21.060;105.826;2024-01-30T10:26:17;184.82;;;80.75;;
76357;SDS011;65185;21.060;105.826;2024-01-30T10:28:44;185.93;;;84.30;;
76357;SDS011;65185;21.060;105.826;2024-01-30T10:31:11;170.50;;;75.88;;
76357;SDS011;65185;21.060;105.826;2024-01-30T10:33:42;159.32;;;75.25;;
76357;SDS011;65185;21.060;105.826;2024-01-30T10:36:12;166.82;;;76.00;;
76357;SDS011;65185;21.060;105.826;2024-01-30T10:38:42;193.32;;;83.82;;
76357;SDS011;65185;21.060;105.826;2024-01-30T10:41:12;168.23;;;79.38;;
76357;SDS011;65185;21.060;105.826;2024-01-30T10:43:41;180.55;;;81.85;;
76357;SDS011;65185;21.060;105.826;2024-01-30T10:46:21;179.50;;;79.78;;
76357;SDS011;65185;21.060;105.826;2024-01-30T10:48:57;174.45;;;78.68;;
76357;SDS011;65185;21.060;105.826;2024-01-30T10:51:26;203.63;;;86.55;;
76357;SDS011;65185;21.060;105.826;2024-01-30T10:53:53;190.05;;;83.95;;
76357;SDS011;65185;21.060;105.826;2024-01-30T10:56:22;186.90;;;82.30;;
76357;SDS011;65185;21.060;105.826;2024-01-30T10:58:53;182.93;;;81.88;;
76357;SDS011;65185;21.060;105.826;2024-01-30T11:01:23;196.65;;;85.20;;
76357;SDS011;65185;21.060;105.826;2024-01-30T11:03:51;193.63;;;88.13;;
76357;SDS011;65185;21.060;105.826;2024-01-30T11:06:22;191.15;;;84.35;;
76357;SDS011;65185;21.060;105.826;2024-01-30T11:09:02;181.63;;;81.57;;
76357;SDS011;65185;21.060;105.826;2024-01-30T11:11:47;205.25;;;87.07;;
76357;SDS011;65185;21.060;105.826;2024-01-30T11:14:27;172.23;;;82.20;;
76357;SDS011;65185;21.060;105.826;2024-01-30T11:16:59;182.02;;;82.07;;
76357;SDS011;65185;21.060;105.826;2024-01-30T11:19:26;179.60;;;79.65;;
76357;SDS011;65185;21.060;105.826;2024-01-30T11:21:56;202.45;;;87.70;;
76357;SDS011;65185;21.060;105.826;2024-01-30T11:24:23;184.88;;;82.90;;
76357;SDS011;65185;21.060;105.826;2024-01-30T11:26:58;192.35;;;84.85;;
76357;SDS011;65185;21.060;105.826;2024-01-30T11:29:29;182.57;;;81.13;;
76357;SDS011;65185;21.060;105.826;2024-01-30T11:34:22;191.80;;;80.63;;
76357;SDS011;65185;21.060;105.826;2024-01-30T11:36:56;205.52;;;86.72;;
76357;SDS011;65185;21.060;105.826;2024-01-30T11:39:25;180.13;;;81.38;;
76357;SDS011;65185;21.060;105.826;2024-01-30T11:41:52;212.07;;;89.65;;
76357;SDS011;65185;21.060;105.826;2024-01-30T11:44:20;180.80;;;85.90;;
76357;SDS011;65185;21.060;105.826;2024-01-30T11:46:51;199.75;;;88.35;;
76357;SDS011;65185;21.060;105.826;2024-01-30T11:49:18;189.48;;;85.47;;
76357;SDS011;65185;21.060;105.826;2024-01-30T11:51:45;220.27;;;93.03;;
76357;SDS011;65185;21.060;105.826;2024-01-30T11:54:15;190.10;;;85.97;;
76357;SDS011;65185;21.060;105.826;2024-01-30T11:56:42;189.75;;;86.65;;
76357;SDS011;65185;21.060;105.826;2024-01-30T11:59:09;177.57;;;84.50;;
76357;SDS011;65185;21.060;105.826;2024-01-30T12:01:36;209.43;;;91.35;;
76357;SDS011;65185;21.060;105.826;2024-01-30T12:04:03;194.73;;;88.68;;
76357;SDS011;65185;21.060;105.826;2024-01-30T12:06:34;189.10;;;84.90;;
76357;SDS011;65185;21.060;105.826;2024-01-30T12:09:02;180.70;;;82.90;;
76357;SDS011;65185;21.060;105.826;2024-01-30T12:11:46;201.80;;;89.55;;
76357;SDS011;65185;21.060;105.826;2024-01-30T12:14:14;198.48;;;85.85;;
76357;SDS011;65185;21.060;105.826;2024-01-30T12:16:42;179.63;;;81.97;;
76357;SDS011;65185;21.060;105.826;2024-01-30T12:19:09;195.40;;;84.25;;
76357;SDS011;65185;21.060;105.826;2024-01-30T12:21:37;197.52;;;89.53;;
76357;SDS011;65185;21.060;105.826;2024-01-30T12:24:04;184.75;;;83.47;;
76357;SDS011;65185;21.060;105.826;2024-01-30T12:26:34;190.55;;;85.30;;
76357;SDS011;65185;21.060;105.826;2024-01-30T12:29:03;204.40;;;89.03;;
76357;SDS011;65185;21.060;105.826;2024-01-30T12:31:31;186.15;;;83.15;;
76357;SDS011;65185;21.060;105.826;2024-01-30T12:34:02;196.40;;;85.82;;
76357;SDS011;65185;21.060;105.826;2024-01-30T12:36:28;205.80;;;89.05;;
76357;SDS011;65185;21.060;105.826;2024-01-30T12:38:56;198.02;;;87.55;;
76357;SDS011;65185;21.060;105.826;2024-01-30T12:41:23;187.40;;;84.60;;
76357;SDS011;65185;21.060;105.826;2024-01-30T12:43:54;220.20;;;90.85;;
76357;SDS011;65185;21.060;105.826;2024-01-30T12:46:25;214.35;;;89.45;;
76357;SDS011;65185;21.060;105.826;2024-01-30T12:48:54;202.90;;;84.72;;
76357;SDS011;65185;21.060;105.826;2024-01-30T12:51:21;180.43;;;81.90;;
76357;SDS011;65185;21.060;105.826;2024-01-30T12:53:47;226.43;;;92.90;;
76357;SDS011;65185;21.060;105.826;2024-01-30T12:56:14;221.93;;;91.72;;
76357;SDS011;65185;21.060;105.826;2024-01-30T12:58:45;197.98;;;83.95;;
76357;SDS011;65185;21.060;105.826;2024-01-30T13:01:15;208.25;;;86.65;;
76357;SDS011;65185;21.060;105.826;2024-01-30T13:03:42;214.60;;;89.78;;
76357;SDS011;65185;21.060;105.826;2024-01-30T13:06:09;206.18;;;87.40;;
76357;SDS011;65185;21.060;105.826;2024-01-30T13:08:37;200.70;;;85.55;;
76357;SDS011;65185;21.060;105.826;2024-01-30T13:11:07;216.82;;;86.15;;
76357;SDS011;65185;21.060;105.826;2024-01-30T13:13:34;210.55;;;87.03;;
76357;SDS011;65185;21.060;105.826;2024-01-30T13:16:01;192.68;;;83.65;;
76357;SDS011;65185;21.060;105.826;2024-01-30T13:18:29;201.48;;;84.43;;
76357;SDS011;65185;21.060;105.826;2024-01-30T13:20:56;214.15;;;87.68;;
76357;SDS011;65185;21.060;105.826;2024-01-30T13:23:23;217.65;;;90.47;;
76357;SDS011;65185;21.060;105.826;2024-01-30T13:25:50;179.70;;;79.25;;
76357;SDS011;65185;21.060;105.826;2024-01-30T13:28:19;195.55;;;83.50;;
76357;SDS011;65185;21.060;105.826;2024-01-30T13:30:46;213.05;;;86.32;;
76357;SDS011;65185;21.060;105.826;2024-01-30T13:33:12;215.75;;;89.30;;
76357;SDS011;65185;21.060;105.826;2024-01-30T13:35:39;203.02;;;87.30;;
76357;SDS011;65185;21.060;105.826;2024-01-30T13:38:06;193.93;;;84.20;;
76357;SDS011;65185;21.060;105.826;2024-01-30T13:40:33;229.95;;;91.20;;
76357;SDS011;65185;21.060;105.826;2024-01-30T13:43:03;216.93;;;89.25;;
76357;SDS011;65185;21.060;105.826;2024-01-30T13:45:34;194.32;;;83.78;;
76357;SDS011;65185;21.060;105.826;2024-01-30T13:48:01;234.32;;;89.00;;
76357;SDS011;65185;21.060;105.826;2024-01-30T13:50:28;208.13;;;89.07;;
76357;SDS011;65185;21.060;105.826;2024-01-30T13:52:58;205.45;;;87.65;;
76357;SDS011;65185;21.060;105.826;2024-01-30T13:55:26;194.60;;;82.38;;
76357;SDS011;65185;21.060;105.826;2024-01-30T13:57:52;213.23;;;87.32;;